Lindenwood, Illinois
Current Conditions -  °F | °C
As of 6:15 PM on Monday 24 Nov 2014 (Local Time) from KRPJ Reporting Station
Light Snow Light Snow  
Wind Chill:   Ceiling: 1700
Heat Index: 24°   Visibility: 5mi
Dew Point: 21°   Wind: 28mph
Humidity: 86%   Direction: 260°W
Pressure: 29.69"   Gusts: 35mph
Location:  42.05°N, 89.03°W
Report Text: KRPJ 250015Z AUTO 26024G30KT 5SM -SN OVC017 M04/M06 A2969 RMK AO2 T10431063
Loading
Personal Weather Stations






























Interactive Weather Map New forecast layout! Learn more

10-Day Weather Forecast

Advertisements
Track Severe Weather on mobile